createdAt,value
2023-02-19T00:00:07.357Z,77.72
2023-02-19T00:02:36.119Z,71.05
2023-02-19T00:05:06.233Z,67.63
2023-02-19T00:07:33.314Z,63.30
2023-02-19T00:10:00.314Z,74.78
2023-02-19T00:12:28.019Z,72.60
2023-02-19T00:14:56.065Z,68.80
2023-02-19T00:17:23.080Z,71.05
2023-02-19T00:19:50.065Z,69.28
2023-02-19T00:22:16.993Z,63.58
2023-02-19T00:24:43.950Z,67.15
2023-02-19T00:27:11.186Z,60.88
2023-02-19T00:29:38.094Z,105.53
2023-02-19T00:32:05.472Z,122.03
2023-02-19T00:34:32.506Z,111.93
2023-02-19T00:36:59.530Z,136.75
2023-02-19T00:39:26.573Z,139.43
2023-02-19T00:41:53.528Z,146.93
2023-02-19T00:44:23.437Z,148.80
2023-02-19T00:46:50.623Z,123.15
2023-02-19T00:49:26.776Z,125.57
2023-02-19T00:51:54.226Z,115.75
2023-02-19T00:54:24.905Z,100.07
2023-02-19T00:56:52.143Z,103.07
2023-02-19T00:59:19.628Z,96.82
2023-02-19T01:01:50.323Z,79.28
2023-02-19T01:04:17.776Z,78.35
2023-02-19T01:06:45.526Z,87.05
2023-02-19T01:09:12.508Z,95.47
2023-02-19T01:11:39.534Z,94.82
2023-02-19T01:14:06.456Z,80.22
2023-02-19T01:16:33.519Z,76.30
2023-02-19T01:19:00.644Z,71.38
2023-02-19T01:21:30.265Z,76.43
2023-02-19T01:23:59.470Z,70.65
2023-02-19T01:26:29.503Z,67.40
2023-02-19T01:28:57.583Z,60.25
2023-02-19T01:31:25.948Z,58.60
2023-02-19T01:33:55.944Z,46.83
2023-02-19T01:36:25.299Z,60.80
2023-02-19T01:38:53.377Z,61.78
2023-02-19T01:41:23.606Z,50.55
2023-02-19T01:44:17.351Z,52.85
2023-02-19T01:46:48.840Z,55.42
2023-02-19T01:49:19.187Z,52.55
2023-02-19T01:51:50.757Z,50.05
2023-02-19T01:54:21.596Z,44.10
2023-02-19T01:56:52.776Z,44.63
2023-02-19T01:59:19.990Z,48.30
2023-02-19T02:01:46.984Z,41.90
2023-02-19T02:04:15.745Z,47.25
2023-02-19T02:06:52.355Z,47.03
2023-02-19T02:12:05.591Z,56.30
2023-02-19T02:14:38.137Z,52.28
2023-02-19T02:17:23.369Z,45.90
2023-02-19T02:20:14.900Z,49.92
2023-02-19T02:23:22.787Z,46.75
2023-02-19T02:26:25.930Z,46.10
2023-02-19T02:28:58.473Z,44.67
2023-02-19T02:31:39.605Z,47.38
2023-02-19T02:34:21.136Z,42.47
2023-02-19T02:36:54.545Z,48.72
2023-02-19T02:39:25.733Z,44.95
2023-02-19T02:42:16.613Z,42.80
2023-02-19T02:45:04.932Z,44.35
2023-02-19T02:47:44.961Z,37.92
2023-02-19T02:50:18.567Z,40.67
2023-02-19T02:53:07.103Z,41.28
2023-02-19T02:55:38.964Z,46.40
2023-02-19T02:58:07.760Z,38.25
2023-02-19T03:00:55.754Z,39.40
2023-02-19T03:03:26.121Z,36.47
2023-02-19T03:05:57.837Z,37.45
2023-02-19T03:08:31.802Z,36.75
2023-02-19T03:11:24.670Z,38.20
2023-02-19T03:14:28.900Z,32.63
2023-02-19T03:17:21.747Z,34.45
2023-02-19T03:19:52.540Z,42.97
2023-02-19T03:22:25.019Z,38.08
2023-02-19T03:25:47.005Z,43.30
2023-02-19T03:28:17.737Z,30.30
2023-02-19T03:30:52.374Z,39.08
2023-02-19T03:33:24.190Z,36.00
2023-02-19T03:36:00.344Z,37.40
2023-02-19T03:38:37.089Z,40.72
2023-02-19T03:41:25.352Z,36.88
2023-02-19T03:44:17.976Z,37.03
2023-02-19T03:47:12.690Z,37.72
2023-02-19T03:49:57.904Z,35.20
2023-02-19T03:52:42.192Z,35.10
2023-02-19T03:55:24.797Z,32.42
2023-02-19T03:58:03.938Z,31.67
2023-02-19T04:00:52.928Z,28.40
2023-02-19T04:03:37.538Z,31.30
2023-02-19T04:06:17.737Z,32.38
2023-02-19T04:08:49.049Z,32.03
2023-02-19T04:11:19.423Z,34.72
2023-02-19T04:14:01.616Z,31.95
2023-02-19T04:16:30.140Z,27.75
2023-02-19T04:19:06.612Z,25.17
2023-02-19T04:21:35.112Z,34.17
2023-02-19T04:24:07.211Z,28.45
2023-02-19T04:26:35.687Z,29.77
2023-02-19T04:29:02.504Z,28.83
2023-02-19T04:31:35.390Z,25.10
2023-02-19T04:34:04.078Z,26.23
2023-02-19T04:36:33.993Z,27.33
2023-02-19T04:39:00.999Z,25.27
2023-02-19T04:41:28.006Z,28.70
2023-02-19T04:43:54.889Z,26.25
2023-02-19T04:46:21.920Z,28.40
2023-02-19T04:48:48.817Z,25.65
2023-02-19T04:51:15.834Z,23.10
2023-02-19T04:53:43.016Z,25.38
2023-02-19T04:56:12.672Z,26.33
2023-02-19T04:58:39.952Z,25.70
2023-02-19T05:01:07.075Z,24.92
2023-02-19T05:03:39.933Z,23.60
2023-02-19T05:06:09.229Z,23.38
2023-02-19T05:08:36.525Z,20.90
2023-02-19T05:11:06.433Z,24.30
2023-02-19T05:13:33.741Z,21.75
2023-02-19T05:16:14.153Z,23.23
2023-02-19T05:18:41.700Z,22.55
2023-02-19T05:21:09.653Z,21.88
2023-02-19T05:23:37.134Z,23.58
2023-02-19T05:26:08.960Z,21.15
2023-02-19T05:28:35.967Z,22.33
2023-02-19T05:31:09.852Z,24.63
2023-02-19T05:33:38.208Z,37.40
2023-02-19T05:36:10.457Z,41.05
2023-02-19T05:38:38.083Z,35.92
2023-02-19T05:41:10.722Z,38.97
2023-02-19T05:43:39.752Z,39.92
2023-02-19T05:46:07.559Z,34.15
2023-02-19T05:48:34.749Z,34.83
2023-02-19T05:51:06.344Z,39.55
2023-02-19T05:53:33.678Z,39.83
2023-02-19T05:56:00.599Z,35.08
2023-02-19T05:58:28.069Z,40.35
2023-02-19T06:00:55.954Z,39.05
2023-02-19T06:03:23.234Z,39.08
2023-02-19T06:05:50.075Z,42.10
2023-02-19T06:08:17.023Z,42.38
2023-02-19T06:10:43.855Z,43.22
2023-02-19T06:13:10.815Z,44.45
2023-02-19T06:15:38.065Z,41.40
2023-02-19T06:18:05.236Z,40.05
2023-02-19T06:20:33.217Z,40.95
2023-02-19T06:23:00.180Z,42.30
2023-02-19T06:25:26.997Z,48.22
2023-02-19T06:27:53.784Z,41.10
2023-02-19T06:30:20.872Z,29.67
2023-02-19T06:32:47.745Z,32.42
2023-02-19T06:35:14.598Z,27.00
2023-02-19T06:37:41.511Z,23.75
2023-02-19T06:40:08.826Z,30.83
2023-02-19T06:42:35.757Z,22.58
2023-02-19T06:45:02.600Z,27.70
2023-02-19T06:47:32.976Z,23.92
2023-02-19T06:50:00.848Z,23.85
2023-02-19T06:52:28.485Z,20.15
2023-02-19T06:54:55.253Z,19.35
2023-02-19T06:57:22.060Z,24.65
2023-02-19T06:59:48.930Z,20.20
2023-02-19T07:02:18.930Z,19.50
2023-02-19T07:04:45.820Z,20.67
2023-02-19T07:07:13.445Z,20.67
2023-02-19T07:09:40.350Z,20.95
2023-02-19T07:12:08.062Z,20.75
2023-02-19T07:14:34.949Z,18.50
2023-02-19T07:17:01.935Z,17.15
2023-02-19T07:19:28.725Z,21.63
2023-02-19T07:21:55.885Z,22.08
2023-02-19T07:24:22.832Z,17.70
2023-02-19T07:26:49.848Z,21.23
2023-02-19T07:29:16.814Z,16.17
2023-02-19T07:31:43.893Z,17.98
2023-02-19T07:34:10.801Z,15.95
2023-02-19T07:36:37.734Z,17.27
2023-02-19T07:39:04.642Z,20.10
2023-02-19T07:41:32.159Z,15.65
2023-02-19T07:44:18.057Z,19.48
2023-02-19T07:46:45.008Z,20.02
2023-02-19T07:49:11.924Z,14.63
2023-02-19T07:51:57.336Z,23.83
2023-02-19T07:54:24.119Z,18.05
2023-02-19T07:56:51.089Z,14.63
2023-02-19T07:59:19.617Z,17.20
2023-02-19T08:02:05.051Z,14.45
2023-02-19T08:04:31.972Z,15.02
2023-02-19T08:06:58.755Z,17.88
2023-02-19T08:09:25.642Z,15.27
2023-02-19T08:12:11.322Z,18.55
2023-02-19T08:14:58.077Z,18.30
2023-02-19T08:17:25.057Z,15.45
2023-02-19T08:19:52.085Z,15.98
2023-02-19T08:22:19.426Z,15.27
2023-02-19T08:24:46.346Z,13.35
2023-02-19T08:27:13.260Z,13.95
2023-02-19T08:29:40.202Z,13.60
2023-02-19T08:32:07.213Z,17.70
2023-02-19T08:34:34.035Z,22.67
2023-02-19T08:37:02.378Z,12.95
2023-02-19T08:39:29.223Z,11.93
2023-02-19T08:41:55.996Z,11.68
2023-02-19T08:44:22.782Z,12.50
2023-02-19T08:46:49.805Z,12.27
2023-02-19T08:49:16.705Z,16.13
2023-02-19T08:52:02.248Z,12.30
2023-02-19T08:54:30.153Z,10.52
2023-02-19T08:57:15.732Z,13.73
2023-02-19T08:59:42.594Z,11.57
2023-02-19T09:02:10.293Z,12.70
2023-02-19T09:04:37.972Z,13.23
2023-02-19T09:07:08.040Z,14.35
2023-02-19T09:09:37.657Z,9.25
2023-02-19T09:12:08.982Z,13.35
2023-02-19T09:14:36.277Z,13.38
2023-02-19T09:17:05.511Z,10.73
2023-02-19T09:19:33.037Z,13.43
2023-02-19T09:22:00.344Z,11.45
2023-02-19T09:24:27.410Z,12.25
2023-02-19T09:26:55.457Z,11.18
2023-02-19T09:29:25.589Z,9.82
2023-02-19T09:31:57.124Z,12.95
2023-02-19T09:34:25.508Z,11.55
2023-02-19T09:36:52.666Z,18.02
2023-02-19T09:39:20.420Z,16.13
2023-02-19T09:41:55.472Z,13.80
2023-02-19T09:44:29.783Z,10.43
2023-02-19T09:46:57.242Z,13.07
2023-02-19T09:49:32.179Z,15.05
2023-02-19T09:52:07.977Z,11.95
2023-02-19T09:54:37.519Z,9.50
2023-02-19T09:57:04.983Z,10.20
2023-02-19T09:59:41.155Z,7.70
2023-02-19T10:02:17.504Z,10.23
2023-02-19T10:04:46.050Z,11.82
2023-02-19T10:07:18.546Z,11.55
2023-02-19T10:10:02.142Z,8.55
2023-02-19T10:12:32.069Z,8.30
2023-02-19T10:15:11.776Z,10.82
2023-02-19T10:17:38.817Z,8.70
2023-02-19T10:20:06.315Z,8.18
2023-02-19T10:22:37.019Z,8.05
2023-02-19T10:25:22.464Z,8.25
2023-02-19T10:27:49.614Z,8.30
2023-02-19T10:30:29.747Z,6.05
2023-02-19T10:33:02.709Z,11.90
2023-02-19T10:35:31.373Z,7.85
2023-02-19T10:37:58.368Z,12.63
2023-02-19T10:40:27.799Z,8.18
2023-02-19T10:42:59.528Z,15.30
2023-02-19T10:45:50.684Z,6.60
2023-02-19T10:48:28.437Z,9.25
2023-02-19T10:50:58.447Z,7.15
2023-02-19T10:53:41.900Z,8.85
2023-02-19T10:56:13.035Z,7.35
2023-02-19T10:58:42.486Z,9.23
2023-02-19T11:01:16.571Z,7.68
2023-02-19T11:03:43.561Z,6.38
2023-02-19T11:06:14.024Z,7.15
2023-02-19T11:08:52.096Z,10.57
2023-02-19T11:11:23.292Z,8.65
2023-02-19T11:13:50.782Z,9.38
2023-02-19T11:16:18.144Z,7.25
2023-02-19T11:18:54.826Z,8.82
2023-02-19T11:21:33.184Z,7.50
2023-02-19T11:26:35.511Z,11.70
2023-02-19T11:29:17.522Z,8.65
2023-02-19T11:31:44.549Z,9.88
2023-02-19T11:34:13.968Z,8.23
2023-02-19T11:36:41.831Z,7.07
2023-02-19T11:39:17.832Z,9.98
2023-02-19T11:42:14.260Z,9.30
2023-02-19T11:45:05.409Z,8.75
2023-02-19T11:47:44.245Z,10.00
2023-02-19T11:50:11.163Z,8.50
2023-02-19T11:53:12.084Z,8.57
2023-02-19T11:55:57.037Z,8.38
2023-02-19T11:58:48.769Z,8.90
2023-02-19T12:01:40.006Z,12.88
2023-02-19T12:04:37.944Z,10.52
2023-02-19T12:07:49.275Z,8.95
2023-02-19T12:10:48.156Z,13.68
2023-02-19T12:13:45.312Z,11.02
2023-02-19T12:16:26.302Z,10.20
2023-02-19T12:19:02.492Z,6.90
2023-02-19T12:22:13.861Z,7.35
2023-02-19T12:25:25.845Z,7.22
2023-02-19T12:28:39.737Z,8.80
2023-02-19T12:31:32.997Z,7.85
2023-02-19T12:34:21.753Z,9.23
2023-02-19T12:36:54.246Z,11.93
2023-02-19T12:39:39.844Z,9.80
2023-02-19T12:42:44.185Z,16.25
2023-02-19T12:45:37.423Z,13.13
2023-02-19T12:48:43.352Z,17.17
2023-02-19T12:51:21.902Z,11.35
2023-02-19T12:54:03.745Z,11.82
2023-02-19T12:56:45.549Z,10.65
2023-02-19T12:59:22.998Z,6.93
2023-02-19T13:01:57.306Z,8.57
2023-02-19T13:05:22.845Z,13.23
2023-02-19T13:08:07.875Z,10.20
2023-02-19T13:10:40.810Z,12.52
2023-02-19T13:13:22.787Z,14.32
2023-02-19T13:15:59.219Z,15.95
2023-02-19T13:18:49.127Z,13.23
2023-02-19T13:21:38.401Z,13.95
2023-02-19T13:24:15.686Z,12.05
2023-02-19T13:26:49.405Z,16.42
2023-02-19T13:29:31.155Z,12.90
2023-02-19T13:32:19.468Z,18.98
2023-02-19T13:35:23.088Z,16.45
2023-02-19T13:37:50.769Z,13.95
2023-02-19T13:40:39.480Z,15.65
2023-02-19T13:43:28.266Z,16.85
2023-02-19T13:46:02.720Z,14.50
2023-02-19T13:48:35.536Z,10.40
2023-02-19T13:51:18.842Z,12.25
2023-02-19T13:53:45.793Z,11.10
2023-02-19T13:56:31.544Z,13.90
2023-02-19T13:58:58.350Z,11.93
2023-02-19T14:01:49.668Z,18.42
2023-02-19T14:04:48.563Z,13.70
2023-02-19T14:07:15.284Z,14.98
2023-02-19T14:09:44.033Z,15.18
2023-02-19T14:12:10.906Z,18.92
2023-02-19T14:14:41.432Z,23.52
2023-02-19T14:17:17.906Z,32.70
2023-02-19T14:19:51.467Z,19.30
2023-02-19T14:22:50.359Z,13.30
2023-02-19T14:25:32.255Z,12.98
2023-02-19T14:28:28.006Z,14.05
2023-02-19T14:31:01.126Z,13.57
2023-02-19T14:33:35.665Z,11.75
2023-02-19T14:36:18.242Z,12.95
2023-02-19T14:39:22.628Z,12.57
2023-02-19T14:41:58.658Z,13.90
2023-02-19T14:44:29.108Z,19.73
2023-02-19T14:47:20.855Z,18.85
2023-02-19T14:50:00.106Z,18.95
2023-02-19T14:52:34.547Z,14.68
2023-02-19T14:55:10.077Z,22.85
2023-02-19T14:57:41.095Z,20.45
2023-02-19T15:00:27.739Z,24.20
2023-02-19T15:02:57.761Z,18.70
2023-02-19T15:05:30.863Z,21.38
2023-02-19T15:08:09.570Z,25.38
2023-02-19T15:10:36.976Z,27.20
2023-02-19T15:13:08.725Z,26.38
2023-02-19T15:15:43.602Z,26.27
2023-02-19T15:18:20.056Z,21.95
2023-02-19T15:20:47.569Z,23.42
2023-02-19T15:23:22.616Z,25.60
2023-02-19T15:25:50.774Z,30.50
2023-02-19T15:28:26.634Z,23.55
2023-02-19T15:30:59.486Z,26.80
2023-02-19T15:33:28.335Z,26.55
2023-02-19T15:35:58.342Z,29.77
2023-02-19T15:38:26.424Z,33.22
2023-02-19T15:41:25.705Z,28.77
2023-02-19T15:44:13.593Z,25.13
2023-02-19T15:46:41.624Z,33.60
2023-02-19T15:49:17.374Z,30.63
2023-02-19T15:52:03.014Z,27.57
2023-02-19T15:55:03.202Z,28.05
2023-02-19T15:57:35.752Z,31.35
2023-02-19T16:00:32.701Z,32.10
2023-02-19T16:02:59.923Z,40.28
2023-02-19T16:05:29.064Z,33.15
2023-02-19T16:08:14.284Z,30.75
2023-02-19T16:10:52.177Z,28.50
2023-02-19T16:13:24.693Z,26.15
2023-02-19T16:16:07.505Z,24.42
2023-02-19T16:18:35.275Z,31.55
2023-02-19T16:21:23.459Z,32.78
2023-02-19T16:23:57.136Z,40.53
2023-02-19T16:26:24.076Z,46.33
2023-02-19T16:28:53.744Z,35.42
2023-02-19T16:31:23.523Z,28.23
2023-02-19T16:33:51.117Z,30.02
2023-02-19T16:36:32.775Z,24.90
2023-02-19T16:39:08.683Z,33.85
2023-02-19T16:41:41.620Z,33.55
2023-02-19T16:44:32.593Z,35.83
2023-02-19T16:47:04.966Z,30.60
2023-02-19T16:49:32.107Z,34.90
2023-02-19T16:52:04.499Z,31.73
2023-02-19T16:54:31.810Z,30.33
2023-02-19T16:56:58.774Z,29.90
2023-02-19T16:59:25.588Z,37.13
2023-02-19T17:01:52.652Z,51.47
2023-02-19T17:04:19.644Z,58.35
2023-02-19T17:06:47.489Z,53.35
2023-02-19T17:09:14.357Z,60.40
2023-02-19T17:11:41.207Z,42.28
2023-02-19T17:14:08.419Z,38.20
2023-02-19T17:16:40.566Z,41.97
2023-02-19T17:19:16.999Z,41.58
2023-02-19T17:21:45.443Z,38.20
2023-02-19T17:24:12.816Z,42.47
2023-02-19T17:26:39.621Z,36.88
2023-02-19T17:29:08.744Z,39.28
2023-02-19T17:31:35.662Z,36.75
2023-02-19T17:34:02.522Z,32.90
2023-02-19T17:36:32.153Z,41.05
2023-02-19T17:39:00.333Z,51.20
2023-02-19T17:41:27.555Z,48.10
2023-02-19T17:43:54.609Z,62.38
2023-02-19T17:46:25.117Z,73.28
2023-02-19T17:48:52.688Z,58.22
2023-02-19T17:51:20.259Z,50.92
2023-02-19T17:53:47.060Z,39.15
2023-02-19T17:56:25.766Z,33.47
2023-02-19T17:58:53.309Z,33.47
2023-02-19T18:01:20.439Z,34.70
2023-02-19T18:03:47.467Z,33.05
2023-02-19T18:06:14.668Z,30.38
2023-02-19T18:08:48.095Z,52.55
2023-02-19T18:11:15.067Z,44.28
2023-02-19T18:13:41.826Z,48.78
2023-02-19T18:16:09.984Z,59.88
2023-02-19T18:18:37.621Z,59.83
2023-02-19T18:21:07.918Z,42.45
2023-02-19T18:23:34.784Z,33.25
2023-02-19T18:26:01.769Z,38.25
2023-02-19T18:28:28.661Z,35.70
2023-02-19T18:30:55.666Z,31.77
2023-02-19T18:33:22.615Z,34.20
2023-02-19T18:35:50.537Z,36.00
2023-02-19T18:38:17.446Z,47.35
2023-02-19T18:40:44.435Z,57.28
2023-02-19T18:43:11.439Z,49.97
2023-02-19T18:45:39.836Z,58.42
2023-02-19T18:48:06.700Z,52.13
2023-02-19T18:50:35.123Z,55.28
2023-02-19T18:53:02.350Z,53.00
2023-02-19T18:55:29.290Z,60.50
2023-02-19T18:57:56.117Z,50.72
2023-02-19T19:00:26.649Z,46.22
2023-02-19T19:02:58.437Z,39.42
2023-02-19T19:05:26.234Z,43.35
2023-02-19T19:07:54.580Z,40.67
2023-02-19T19:10:22.475Z,29.08
2023-02-19T19:12:49.809Z,31.73
2023-02-19T19:15:18.597Z,28.13
2023-02-19T19:17:46.029Z,24.92
2023-02-19T19:20:14.031Z,26.00
2023-02-19T19:22:40.982Z,23.38
2023-02-19T19:25:08.880Z,24.25
2023-02-19T19:27:35.764Z,23.15
2023-02-19T19:30:04.962Z,26.35
2023-02-19T19:32:31.926Z,21.13
2023-02-19T19:34:58.780Z,22.42
2023-02-19T19:37:28.345Z,21.00
2023-02-19T19:39:56.584Z,15.18
2023-02-19T19:42:24.050Z,14.32
2023-02-19T19:44:50.908Z,15.60
2023-02-19T19:47:17.849Z,17.42
2023-02-19T19:49:47.455Z,25.98
2023-02-19T19:52:14.984Z,25.45
2023-02-19T19:54:45.018Z,16.20
2023-02-19T19:57:12.046Z,13.45
2023-02-19T19:59:39.699Z,18.23
2023-02-19T20:02:07.950Z,13.00
2023-02-19T20:04:35.003Z,24.20
2023-02-19T20:07:02.531Z,23.75
2023-02-19T20:09:29.624Z,16.58
2023-02-19T20:11:57.176Z,29.40
2023-02-19T20:14:25.448Z,18.23
2023-02-19T20:16:53.660Z,17.00
2023-02-19T20:19:21.005Z,19.35
2023-02-19T20:21:53.388Z,15.40
2023-02-19T20:24:28.701Z,13.52
2023-02-19T20:27:00.643Z,15.43
2023-02-19T20:29:29.179Z,17.17
2023-02-19T20:32:00.037Z,16.35
2023-02-19T20:34:46.362Z,19.15
2023-02-19T20:37:13.537Z,22.67
2023-02-19T20:39:40.485Z,15.18
2023-02-19T20:42:07.647Z,12.57
2023-02-19T20:44:34.638Z,13.95
2023-02-19T20:47:01.778Z,11.10
2023-02-19T20:49:30.940Z,18.52
2023-02-19T20:52:01.031Z,16.25
2023-02-19T20:54:30.199Z,18.85
2023-02-19T20:57:00.288Z,14.05
2023-02-19T20:59:30.948Z,13.73
2023-02-19T21:01:59.083Z,13.35
2023-02-19T21:04:26.445Z,13.40
2023-02-19T21:06:53.305Z,14.25
2023-02-19T21:09:20.734Z,14.90
2023-02-19T21:11:48.369Z,12.75
2023-02-19T21:14:15.796Z,12.10
2023-02-19T21:16:42.689Z,13.02
2023-02-19T21:19:09.561Z,12.10
2023-02-19T21:21:36.663Z,11.43
2023-02-19T21:24:03.692Z,13.10
2023-02-19T21:26:56.363Z,15.48
2023-02-19T21:29:23.248Z,14.07
2023-02-19T21:31:52.646Z,11.88
2023-02-19T21:34:22.789Z,15.13
2023-02-19T21:36:49.627Z,12.70
2023-02-19T21:39:18.742Z,11.35
2023-02-19T21:41:46.116Z,13.38
2023-02-19T21:44:13.364Z,13.02
2023-02-19T21:46:40.306Z,14.55
2023-02-19T21:49:07.425Z,17.50
2023-02-19T21:51:40.588Z,20.80
2023-02-19T21:54:09.056Z,26.85
2023-02-19T21:56:37.261Z,27.45
2023-02-19T21:59:04.668Z,27.35
2023-02-19T22:01:35.361Z,27.60
2023-02-19T22:04:02.252Z,26.05
2023-02-19T22:06:30.796Z,29.30
2023-02-19T22:08:59.011Z,27.65
2023-02-19T22:11:44.333Z,30.70
2023-02-19T22:14:11.267Z,32.13
2023-02-19T22:16:38.209Z,27.45
2023-02-19T22:19:05.051Z,26.48
2023-02-19T22:21:35.603Z,19.35
2023-02-19T22:24:03.438Z,17.00
2023-02-19T22:26:35.674Z,13.68
2023-02-19T22:29:07.316Z,12.30
2023-02-19T22:31:35.254Z,9.10
2023-02-19T22:34:02.465Z,13.70
2023-02-19T22:36:31.238Z,15.27
2023-02-19T22:38:58.322Z,16.02
2023-02-19T22:41:26.160Z,17.40
2023-02-19T22:43:57.469Z,33.83
2023-02-19T22:46:26.404Z,21.15
2023-02-19T22:48:53.209Z,23.77
2023-02-19T22:51:22.595Z,77.35
2023-02-19T22:53:52.471Z,24.20
2023-02-19T22:56:20.778Z,23.90
2023-02-19T22:58:47.786Z,23.92
2023-02-19T23:01:15.046Z,27.90
2023-02-19T23:03:49.081Z,23.40
2023-02-19T23:06:17.743Z,24.58
2023-02-19T23:08:44.759Z,26.58
2023-02-19T23:11:13.319Z,20.85
2023-02-19T23:13:42.931Z,22.80
2023-02-19T23:16:09.953Z,26.58
2023-02-19T23:18:36.966Z,25.27
2023-02-19T23:21:03.876Z,22.17
2023-02-19T23:23:30.727Z,22.77
2023-02-19T23:25:57.555Z,25.98
2023-02-19T23:28:25.466Z,23.85
2023-02-19T23:30:52.386Z,21.13
2023-02-19T23:33:19.345Z,22.63
2023-02-19T23:35:46.166Z,18.85
2023-02-19T23:38:13.007Z,20.25
2023-02-19T23:40:40.217Z,21.88
2023-02-19T23:43:09.771Z,21.80
2023-02-19T23:45:36.583Z,21.50
2023-02-19T23:48:03.600Z,21.80
2023-02-19T23:50:30.429Z,19.02
2023-02-19T23:52:59.273Z,19.98
2023-02-19T23:55:26.731Z,17.30
2023-02-19T23:57:53.870Z,15.60
